Dades meteomassalio
Diari Summary for Febrer 17, 2017 Units:  English    Metric   Both
« Previous Day
Next Day »
Diari Semanal Mensual Anual Personalitzat
  Maxima: Minima: Mijana:
Temperatura: TemperatureC °F 1.4 °F 7.4 °F
Rosada: DewpointC °F 0.6 °F 5.2 °F
Humitat: Humidity % 65 % 86 %
Velocitat del vent: WindSpeedKMH mph 0.0 mph 2.2 mph
Racha vent: WindSpeedGustKMH mph - -
Vent:- - SE
Pressio: PressurehPa in 1026.0 in -
Pluja: 0.3 in    
Historical Graphs
 
 
Tabular Data for Febrer 17, 2017
Time Temperature Dew Point Pressure Wind Wind Speed Wind Gust Humidity Rainfall Rate (Hourly) solar Conditions
TemperatureC °F DewpointC °F PressurehPa in Calm     Humidity % HourlyPrecipMM in SolarRadiationWatts/m^2 W/m2 Conditions
00:04 5.8 °F 4.6 °F 1032.1 in Calm     92 % 0.0 in 0.0 W/m2 CLR
00:09 5.7 °F 4.5 °F 1031.7 in Calm     92 % 0.0 in 0.0 W/m2 CLR
00:14 5.7 °F 4.4 °F 1032.1 in Calm     92 % 0.0 in 0.0 W/m2 CLR
00:19 5.6 °F 4.4 °F 1032.1 in Calm     92 % 0.0 in 0.0 W/m2 CLR
00:24 5.6 °F 4.4 °F 1032.1 in Calm     92 % 0.0 in 0.0 W/m2 CLR
00:29 5.4 °F 4.2 °F 1032.1 in Calm     92 % 0.0 in 0.0 W/m2 CLR
00:34 5.4 °F 4.2 °F 1032.1 in Calm     92 % 0.0 in 0.0 W/m2 CLR
00:39 5.2 °F 4.1 °F 1032.1 in Calm     92 % 0.0 in 0.0 W/m2 CLR
00:44 5.2 °F 4.0 °F 1032.1 in Calm     92 % 0.0 in 0.0 W/m2 CLR
00:49 5.2 °F 4.1 °F 1032.1 in Calm     93 % 0.0 in 0.0 W/m2 CLR
00:54 5.2 °F 4.2 °F 1032.1 in Calm     93 % 0.0 in 0.0 W/m2 CLR
00:59 5.3 °F 4.2 °F 1031.7 in Calm     93 % 0.0 in 0.0 W/m2 CLR
01:04 5.2 °F 4.0 °F 1031.7 in Calm     92 % 0.0 in 0.0 W/m2 CLR
01:09 5.1 °F 3.9 °F 1031.7 in Calm     92 % 0.0 in 0.0 W/m2 CLR
01:14 4.9 °F 3.8 °F 1031.7 in Calm     92 % 0.0 in 0.0 W/m2 CLR
01:19 4.8 °F 3.7 °F 1031.7 in Calm     92 % 0.0 in 0.0 W/m2 CLR
01:29 4.6 °F 3.4 °F 1031.7 in Calm     92 % 0.0 in 0.0 W/m2 CLR
01:34 4.6 °F 3.5 °F 1031.7 in Calm     93 % 0.0 in 0.0 W/m2 CLR
01:39 4.7 °F 3.6 °F 1031.7 in Calm     93 % 0.0 in 0.0 W/m2 CLR
01:44 4.7 °F 3.7 °F 1031.7 in Calm     93 % 0.0 in 0.0 W/m2 CLR
01:49 4.6 °F 3.5 °F 1031.7 in Calm     93 % 0.0 in 0.0 W/m2 CLR
01:54 4.3 °F 3.3 °F 1031.7 in Calm     93 % 0.0 in 0.0 W/m2 CLR
01:59 4.2 °F 3.2 °F 1031.7 in Calm     93 % 0.0 in 0.0 W/m2 CLR
02:04 4.2 °F 3.2 °F 1031.7 in Calm     93 % 0.0 in 0.0 W/m2 CLR
02:09 4.2 °F 3.2 °F 1031.4 in Calm     93 % 0.0 in 0.0 W/m2 CLR
02:14 4.3 °F 3.2 °F 1031.4 in Calm     93 % 0.0 in 0.0 W/m2 CLR
02:19 4.1 °F 3.1 °F 1031.4 in Calm     93 % 0.0 in 0.0 W/m2 CLR
02:24 3.9 °F 2.8 °F 1031.4 in Calm     93 % 0.0 in 0.0 W/m2 CLR
02:29 3.8 °F 2.8 °F 1031.4 in Calm     93 % 0.0 in 0.0 W/m2 CLR
02:34 3.8 °F 2.8 °F 1031.4 in Calm     93 % 0.0 in 0.0 W/m2 CLR
02:39 3.9 °F 2.9 °F 1031.4 in Calm     93 % 0.0 in 0.0 W/m2 CLR
02:44 4.1 °F 3.0 °F 1031.4 in Calm     93 % 0.0 in 0.0 W/m2 CLR
02:49 4.1 °F 3.0 °F 1031.4 in Calm     93 % 0.0 in 0.0 W/m2 CLR
02:54 3.9 °F 2.9 °F 1031.4 in Calm     93 % 0.0 in 0.0 W/m2 CLR
02:59 3.8 °F 2.7 °F 1031.4 in Calm     93 % 0.0 in 0.0 W/m2 CLR
03:04 3.6 °F 2.6 °F 1031.4 in Calm     93 % 0.0 in 0.0 W/m2 CLR
03:09 3.5 °F 2.5 °F 1031.0 in Calm     93 % 0.0 in 0.0 W/m2 CLR
03:14 3.5 °F 2.5 °F 1031.0 in Calm     93 % 0.0 in 0.0 W/m2 CLR
03:19 3.4 °F 2.4 °F 1031.0 in Calm     93 % 0.0 in 0.0 W/m2 CLR
03:24 3.5 °F 2.5 °F 1031.0 in Calm     93 % 0.0 in 0.0 W/m2 CLR
03:29 3.4 °F 2.4 °F 1031.0 in Calm     93 % 0.3 in 0.0 W/m2 RA
03:34 3.3 °F 2.3 °F 1031.0 in Calm     93 % 0.3 in 0.0 W/m2 CLR
03:39 3.3 °F 2.3 °F 1031.0 in Calm     93 % 0.3 in 0.0 W/m2 CLR
03:44 3.2 °F 2.2 °F 1031.0 in Calm     93 % 0.3 in 0.0 W/m2 CLR
03:49 3.1 °F 2.1 °F 1031.0 in Calm     93 % 0.3 in 0.0 W/m2 CLR
03:54 3.1 °F 2.1 °F 1031.0 in Calm     93 % 0.3 in 0.0 W/m2 CLR
03:59 3.1 °F 2.1 °F 1031.0 in Calm     93 % 0.3 in 0.0 W/m2 CLR
04:04 3.2 °F 2.2 °F 1030.7 in Calm     93 % 0.3 in 0.0 W/m2 CLR
04:09 3.3 °F 2.3 °F 1030.7 in Calm     93 % 0.3 in 0.0 W/m2 CLR
04:14 3.3 °F 2.3 °F 1030.7 in Calm     93 % 0.3 in 0.0 W/m2 CLR
04:19 3.3 °F 2.3 °F 1030.7 in Calm     93 % 0.3 in 0.0 W/m2 CLR
04:24 3.3 °F 2.4 °F 1030.7 in Calm     94 % 0.3 in 0.0 W/m2 CLR
04:29 3.3 °F 2.3 °F 1030.7 in Calm     93 % 0.0 in 0.0 W/m2 CLR
04:34 3.2 °F 2.2 °F 1030.7 in Calm     93 % 0.0 in 0.0 W/m2 CLR
04:39 2.9 °F 1.9 °F 1030.7 in Calm     93 % 0.0 in 0.0 W/m2 CLR
04:44 2.7 °F 1.7 °F 1030.7 in Calm     93 % 0.0 in 0.0 W/m2 CLR
04:49 2.6 °F 1.6 °F 1030.7 in Calm     93 % 0.0 in 0.0 W/m2 CLR
04:54 2.6 °F 1.6 °F 1030.4 in Calm     93 % 0.0 in 0.0 W/m2 CLR
04:59 2.5 °F 1.5 °F 1030.4 in Calm     93 % 0.0 in 0.0 W/m2 CLR
05:04 2.4 °F 1.4 °F 1030.4 in Calm     93 % 0.0 in 0.0 W/m2 CLR
05:09 2.6 °F 1.6 °F 1030.4 in Calm     93 % 0.0 in 0.0 W/m2 CLR
05:14 2.5 °F 1.6 °F 1030.4 in Calm     94 % 0.0 in 0.0 W/m2 CLR
05:19 2.5 °F 1.5 °F 1030.4 in Calm     93 % 0.0 in 0.0 W/m2 CLR
05:24 2.4 °F 1.4 °F 1030.4 in Calm     93 % 0.0 in 0.0 W/m2 CLR
05:29 2.3 °F 1.3 °F 1030.4 in Calm     93 % 0.0 in 0.0 W/m2 CLR
05:34 2.3 °F 1.4 °F 1030.4 in Calm     94 % 0.0 in 0.0 W/m2 CLR
05:39 2.3 °F 1.4 °F 1030.4 in Calm     94 % 0.0 in 0.0 W/m2 CLR
05:44 2.3 °F 1.4 °F 1030.4 in Calm     94 % 0.0 in 0.0 W/m2 CLR
05:49 2.3 °F 1.4 °F 1030.4 in Calm     94 % 0.0 in 0.0 W/m2 CLR
05:54 2.3 °F 1.4 °F 1030.0 in Calm     94 % 0.0 in 0.0 W/m2 CLR
05:59 2.2 °F 1.2 °F 1030.4 in Calm     93 % 0.0 in 0.0 W/m2 CLR
06:04 2.3 °F 1.3 °F 1030.0 in Calm     93 % 0.0 in 0.0 W/m2 CLR
06:09 2.3 °F 1.4 °F 1030.0 in Calm     94 % 0.0 in 0.0 W/m2 CLR
06:15 2.3 °F 1.4 °F 1030.4 in Calm     94 % 0.0 in 0.0 W/m2 CLR
06:20 2.3 °F 1.4 °F 1030.0 in Calm     94 % 0.0 in 0.0 W/m2 CLR
06:25 2.5 °F 1.6 °F 1030.0 in Calm     94 % 0.0 in 0.0 W/m2 CLR
06:30 2.3 °F 1.4 °F 1030.0 in Calm     94 % 0.0 in 0.0 W/m2 CLR
06:35 2.1 °F 1.1 °F 1030.0 in Calm     93 % 0.0 in 0.0 W/m2 CLR
06:40 1.9 °F 0.9 °F 1030.0 in Calm     93 % 0.0 in 0.0 W/m2 CLR
06:45 1.9 °F 1.0 °F 1030.0 in Calm     94 % 0.0 in 0.0 W/m2 CLR
06:50 1.8 °F 0.8 °F 1030.0 in Calm     93 % 0.0 in 0.0 W/m2 CLR
06:55 1.9 °F 1.0 °F 1030.0 in Calm     94 % 0.0 in 0.0 W/m2 CLR
07:00 1.8 °F 0.9 °F 1030.0 in Calm     94 % 0.0 in 0.0 W/m2 CLR
07:05 1.7 °F 0.7 °F 1030.0 in Calm     93 % 0.0 in 0.0 W/m2 CLR
07:10 1.6 °F 0.7 °F 1030.0 in Calm     94 % 0.0 in 0.0 W/m2 CLR
07:15 1.6 °F 0.7 °F 1030.4 in Calm     94 % 0.0 in 0.0 W/m2 CLR
07:20 1.6 °F 0.7 °F 1030.4 in Calm     94 % 0.0 in 0.0 W/m2 CLR
07:25 1.6 °F 0.7 °F 1030.4 in Calm     94 % 0.0 in 0.0 W/m2 CLR
07:30 1.5 °F 0.7 °F 1030.4 in Calm     94 % 0.0 in 0.0 W/m2 CLR
07:35 1.5 °F 0.7 °F 1030.4 in Calm     94 % 0.0 in 0.0 W/m2 CLR
07:40 1.5 °F 0.7 °F 1030.4 in Calm     94 % 0.0 in 0.0 W/m2 CLR
07:45 1.4 °F 0.6 °F 1030.4 in Calm     94 % 0.0 in 0.0 W/m2 OVC
07:50 1.4 °F 0.6 °F 1030.4 in Calm     94 % 0.0 in 0.0 W/m2 OVC
07:55 1.6 °F 0.7 °F 1030.4 in Calm     94 % 0.0 in 7.0 W/m2 OVC
08:00 1.4 °F 0.6 °F 1030.7 in Calm     94 % 0.0 in 11.0 W/m2 BKN
08:05 1.4 °F 0.6 °F 1030.7 in Calm     94 % 0.0 in 12.0 W/m2 BKN
08:10 1.5 °F 0.7 °F 1030.7 in Calm     94 % 0.0 in 18.0 W/m2 BKN
08:15 1.5 °F 0.7 °F 1030.7 in Calm     94 % 0.0 in 23.0 W/m2 BKN
08:20 1.6 °F 0.7 °F 1030.7 in Calm     94 % 0.0 in 28.0 W/m2 BKN
08:25 1.6 °F 0.7 °F 1030.7 in Calm     94 % 0.0 in 35.0 W/m2 BKN
08:30 1.8 °F 0.9 °F 1030.7 in Calm     94 % 0.0 in 44.0 W/m2 BKN
08:35 1.8 °F 0.9 °F 1030.7 in Calm     94 % 0.0 in 51.0 W/m2 SCT
08:40 2.1 °F 1.2 °F 1031.0 in Calm     94 % 0.0 in 65.0 W/m2 SCT
08:45 2.2 °F 1.3 °F 1031.0 in Calm     94 % 0.0 in 74.0 W/m2 FEW
08:50 2.3 °F 1.4 °F 1031.0 in Calm     94 % 0.0 in 67.0 W/m2 FEW
08:55 2.5 °F 1.6 °F 1031.0 in Calm     94 % 0.0 in 104.0 W/m2 FEW
09:00 2.7 °F 1.8 °F 1031.0 in Calm     94 % 0.0 in 116.0 W/m2 CLR
09:05 2.9 °F 2.0 °F 1031.0 in Calm     94 % 0.0 in 135.0 W/m2 CLR
09:10 3.2 °F 2.3 °F 1030.7 in Calm     94 % 0.0 in 151.0 W/m2 CLR
09:15 3.5 °F 2.6 °F 1030.7 in Calm     94 % 0.0 in 114.0 W/m2 CLR
09:20 3.9 °F 3.0 °F 1030.7 in Calm     94 % 0.0 in 188.0 W/m2 CLR
09:25 4.2 °F 3.3 °F 1030.7 in Calm     94 % 0.0 in 199.0 W/m2 CLR
09:30 4.4 °F 3.5 °F 1030.7 in Calm     94 % 0.0 in 216.0 W/m2 CLR
09:35 4.8 °F 3.9 °F 1030.7 in Calm     94 % 0.0 in 232.0 W/m2 CLR
09:40 5.2 °F 4.3 °F 1030.7 in Calm     94 % 0.0 in 246.0 W/m2 CLR
09:45 5.7 °F 4.8 °F 1030.7 in Calm     94 % 0.0 in 255.0 W/m2 CLR
09:50 5.9 °F 5.0 °F 1030.7 in Calm     94 % 0.0 in 265.0 W/m2 CLR
09:55 6.3 °F 5.4 °F 1030.7 in Calm     94 % 0.0 in 279.0 W/m2 CLR
10:00 6.6 °F 5.6 °F 1030.7 in Calm     93 % 0.0 in 297.0 W/m2 CLR
10:05 6.9 °F 5.8 °F 1030.7 in Calm     93 % 0.0 in 306.0 W/m2 CLR
10:10 7.1 °F 5.9 °F 1030.7 in Calm     92 % 0.0 in 322.0 W/m2 CLR
10:15 7.4 °F 6.2 °F 1030.7 in Calm     92 % 0.0 in 327.0 W/m2 CLR
10:20 7.8 °F 6.6 °F 1030.7 in Calm     92 % 0.0 in 338.0 W/m2 CLR
10:25 8.1 °F 6.7 °F 1030.7 in Calm     91 % 0.0 in 348.0 W/m2 CLR
10:30 8.4 °F 6.9 °F 1030.7 in Calm     90 % 0.0 in 360.0 W/m2 CLR
10:35 8.7 °F 7.0 °F 1030.7 in Calm     89 % 0.0 in 378.0 W/m2 CLR
10:40 9.0 °F 7.1 °F 1030.7 in Calm     88 % 0.0 in 394.0 W/m2 CLR
10:45 9.3 °F 7.2 °F 1030.7 in Calm     87 % 0.0 in 408.0 W/m2 CLR
10:50 9.8 °F 7.7 °F 1030.4 in Calm     87 % 0.0 in 417.0 W/m2 CLR
10:55 10.2 °F 8.0 °F 1030.4 in Calm     86 % 0.0 in 413.0 W/m2 CLR
11:00 10.5 °F 8.1 °F 1030.4 in NW 9.3 mph 9.3 mph 85 % 0.0 in 432.0 W/m2 CLR
11:05 10.7 °F 8.1 °F 1030.4 in NNW 9.3 mph 9.3 mph 84 % 0.0 in 438.0 W/m2 CLR
11:10 10.7 °F 8.1 °F 1030.4 in NW 9.7 mph 9.7 mph 84 % 0.0 in 455.0 W/m2 CLR
11:15 10.7 °F 8.1 °F 1030.4 in NNW 8.0 mph 8.0 mph 84 % 0.0 in 462.0 W/m2 CLR
11:20 10.7 °F 8.1 °F 1030.4 in NW 7.4 mph 7.4 mph 84 % 0.0 in 473.0 W/m2 CLR
11:25 10.9 °F 8.3 °F 1030.0 in NW 8.0 mph 8.0 mph 84 % 0.0 in 480.0 W/m2 CLR
11:30 11.1 °F 8.4 °F 1030.0 in NW 9.3 mph 9.3 mph 84 % 0.0 in 492.0 W/m2 CLR
11:35 11.2 °F 8.7 °F 1030.0 in NW 8.0 mph 8.0 mph 85 % 0.0 in 499.0 W/m2 CLR
11:40 11.3 °F 8.9 °F 1030.0 in NW 8.0 mph 8.0 mph 85 % 0.0 in 515.0 W/m2 CLR
11:45 11.4 °F 8.8 °F 1030.0 in North 7.4 mph 7.4 mph 84 % 0.0 in 517.0 W/m2 CLR
11:50 11.6 °F 8.8 °F 1030.0 in NNW 6.4 mph 6.4 mph 83 % 0.0 in 508.0 W/m2 CLR
11:55 11.7 °F 8.9 °F 1030.0 in North 5.6 mph 5.6 mph 83 % 0.0 in 527.0 W/m2 CLR
12:00 11.9 °F 9.1 °F 1030.0 in NNW 8.0 mph 8.0 mph 83 % 0.0 in 534.0 W/m2 CLR
12:05 11.9 °F 8.7 °F 1029.7 in Calm     81 % 0.0 in 536.0 W/m2 CLR
12:10 12.1 °F 9.1 °F 1029.7 in NW 5.6 mph 5.6 mph 82 % 0.0 in 543.0 W/m2 CLR
12:15 12.3 °F 9.2 °F 1029.7 in NNW 9.3 mph 9.3 mph 81 % 0.0 in 552.0 W/m2 CLR
12:20 12.4 °F 9.1 °F 1029.7 in NNE 9.3 mph 9.3 mph 80 % 0.0 in 559.0 W/m2 CLR
12:25 12.5 °F 9.2 °F 1029.7 in NE 5.6 mph 5.6 mph 80 % 0.0 in 559.0 W/m2 CLR
12:30 12.6 °F 9.2 °F 1029.7 in NNE 9.3 mph 9.3 mph 80 % 0.0 in 559.0 W/m2 CLR
12:35 12.7 °F 9.6 °F 1029.7 in NE 13.0 mph 13.0 mph 81 % 0.0 in 575.0 W/m2 CLR
12:40 12.7 °F 9.6 °F 1029.7 in NNE 11.1 mph 11.1 mph 81 % 0.0 in 580.0 W/m2 CLR
12:45 12.6 °F 9.4 °F 1029.3 in NNE 9.3 mph 9.3 mph 81 % 0.0 in 589.0 W/m2 CLR
12:50 12.6 °F 9.6 °F 1029.3 in North 7.4 mph 7.4 mph 82 % 0.0 in 591.0 W/m2 CLR
12:55 12.5 °F 9.7 °F 1029.3 in North 9.3 mph 9.3 mph 83 % 0.0 in 584.0 W/m2 CLR
13:00 12.6 °F 9.6 °F 1029.0 in NNE 6.4 mph 6.4 mph 82 % 0.0 in 592.0 W/m2 CLR
13:05 12.6 °F 9.6 °F 1029.0 in ENE 5.6 mph 5.6 mph 82 % 0.0 in 592.0 W/m2 CLR
13:10 12.8 °F 9.8 °F 1029.0 in NE 9.7 mph 9.7 mph 82 % 0.0 in 594.0 W/m2 CLR
13:15 12.7 °F 9.6 °F 1029.0 in NE 9.3 mph 9.3 mph 81 % 0.0 in 599.0 W/m2 CLR
13:20 12.6 °F 9.6 °F 1029.0 in ENE 11.1 mph 11.1 mph 82 % 0.0 in 601.0 W/m2 CLR
13:25 12.6 °F 9.6 °F 1028.7 in ENE 7.4 mph 7.4 mph 82 % 0.0 in 598.0 W/m2 CLR
13:30 12.6 °F 9.6 °F 1028.7 in ENE 11.1 mph 11.1 mph 82 % 0.0 in 596.0 W/m2 CLR
13:35 12.6 °F 9.4 °F 1028.7 in NE 14.8 mph 14.8 mph 81 % 0.0 in 599.0 W/m2 CLR
13:40 12.6 °F 9.6 °F 1028.7 in NE 11.1 mph 11.1 mph 82 % 0.0 in 596.0 W/m2 CLR
13:45 12.7 °F 9.9 °F 1028.3 in NE 6.4 mph 6.4 mph 83 % 0.0 in 601.0 W/m2 CLR
13:50 12.8 °F 9.8 °F 1028.7 in ENE 13.0 mph 13.0 mph 82 % 0.0 in 598.0 W/m2 CLR
13:55 12.7 °F 9.7 °F 1028.3 in NE 11.1 mph 11.1 mph 82 % 0.0 in 589.0 W/m2 CLR
14:00 12.7 °F 9.7 °F 1028.3 in NE 11.1 mph 11.1 mph 82 % 0.0 in 587.0 W/m2 CLR
14:05 12.8 °F 9.8 °F 1028.3 in ENE 5.6 mph 5.6 mph 82 % 0.0 in 582.0 W/m2 CLR
14:10 12.9 °F 9.8 °F 1028.3 in NNE 5.6 mph 5.6 mph 81 % 0.0 in 578.0 W/m2 CLR
14:15 13.0 °F 9.8 °F 1028.0 in ENE 11.3 mph 11.3 mph 81 % 0.0 in 573.0 W/m2 CLR
14:20 13.0 °F 9.8 °F 1028.0 in NE 11.1 mph 11.1 mph 81 % 0.0 in 570.0 W/m2 CLR
14:25 12.9 °F 9.8 °F 1028.0 in NE 13.0 mph 13.0 mph 81 % 0.0 in 568.0 W/m2 CLR
14:30 13.1 °F 9.9 °F 1028.0 in NE 11.3 mph 11.3 mph 81 % 0.0 in 561.0 W/m2 CLR
14:35 13.2 °F 9.8 °F 1027.7 in ENE 11.3 mph 11.3 mph 80 % 0.0 in 548.0 W/m2 CLR
14:40 13.2 °F 9.8 °F 1027.7 in NE 11.1 mph 11.1 mph 80 % 0.0 in 548.0 W/m2 CLR
14:45 13.3 °F 9.9 °F 1027.7 in ENE 5.6 mph 5.6 mph 80 % 0.0 in 538.0 W/m2 CLR
14:50 13.4 °F 10.0 °F 1027.7 in ENE 4.8 mph 4.8 mph 80 % 0.0 in 534.0 W/m2 CLR
14:55 13.7 °F 10.3 °F 1027.3 in ENE 7.4 mph 7.4 mph 80 % 0.0 in 526.0 W/m2 CLR
15:00 13.8 °F 10.1 °F 1027.3 in NE 8.0 mph 8.0 mph 78 % 0.0 in 515.0 W/m2 CLR
15:05 13.8 °F 10.1 °F 1027.3 in ENE 11.1 mph 11.1 mph 78 % 0.0 in 510.0 W/m2 CLR
15:10 13.8 °F 10.0 °F 1027.3 in NE 7.4 mph 7.4 mph 78 % 0.0 in 506.0 W/m2 CLR
15:15 13.8 °F 10.1 °F 1027.3 in NE 11.1 mph 11.1 mph 78 % 0.0 in 494.0 W/m2 CLR
15:20 13.8 °F 9.9 °F 1027.3 in NE 7.4 mph 7.4 mph 77 % 0.0 in 466.0 W/m2 CLR
15:25 13.9 °F 9.9 °F 1027.0 in ENE 9.3 mph 9.3 mph 77 % 0.0 in 462.0 W/m2 CLR
15:30 13.8 °F 9.7 °F 1027.0 in East 9.3 mph 9.3 mph 76 % 0.0 in 457.0 W/m2 CLR
15:35 13.8 °F 9.7 °F 1027.0 in ENE 13.0 mph 13.0 mph 76 % 0.0 in 448.0 W/m2 CLR
15:41 13.8 °F 9.8 °F 1027.0 in NE 6.4 mph 6.4 mph 77 % 0.0 in 427.0 W/m2 CLR
15:46 13.9 °F 10.0 °F 1027.0 in NE 7.4 mph   77 % 0.0 in 418.0 W/m2 CLR
15:51 14.2 °F 10.0 °F 1027.0 in ENE 8.0 mph 8.0 mph 76 % 0.0 in 418.0 W/m2 CLR
15:56 14.3 °F 9.9 °F 1026.6 in NE 3.7 mph 3.7 mph 75 % 0.0 in 404.0 W/m2 CLR
16:01 14.3 °F 9.7 °F 1026.6 in East 8.0 mph 8.0 mph 74 % 0.0 in 388.0 W/m2 CLR
16:06 14.2 °F 9.6 °F 1026.6 in NE 7.4 mph 7.4 mph 74 % 0.0 in 332.0 W/m2 CLR
16:11 14.3 °F 9.7 °F 1026.6 in ENE 4.8 mph 4.8 mph 74 % 0.0 in 355.0 W/m2 CLR
16:16 14.3 °F 9.3 °F 1026.6 in ENE 5.6 mph 5.6 mph 72 % 0.0 in 346.0 W/m2 CLR
16:21 14.3 °F 9.3 °F 1026.3 in ENE 5.6 mph   72 % 0.0 in 306.0 W/m2 CLR
16:26 14.4 °F 9.4 °F 1026.3 in NE 1.9 mph 1.9 mph 72 % 0.0 in 320.0 W/m2 CLR
16:31 14.5 °F 9.5 °F 1026.3 in Calm     72 % 0.0 in 302.0 W/m2 CLR
16:36 14.7 °F 8.7 °F 1026.3 in NNE 3.7 mph 3.7 mph 67 % 0.0 in 294.0 W/m2 CLR
16:41 14.9 °F 8.8 °F 1026.3 in NE 1.6 mph 2.3 mph 67 % 0.0 in 283.0 W/m2 CLR
16:46 14.9 °F 9.1 °F 1026.3 in NE 6.4 mph 6.4 mph 68 % 0.0 in 267.0 W/m2 CLR
16:51 14.7 °F 9.3 °F 1026.3 in Calm     70 % 0.0 in 253.0 W/m2 CLR
16:56 14.8 °F 8.9 °F 1026.3 in Calm     68 % 0.0 in 234.0 W/m2 CLR
17:01 14.9 °F 8.4 °F 1026.3 in Calm     65 % 0.0 in 223.0 W/m2 CLR
17:06 14.9 °F 8.4 °F 1026.3 in North 11.1 mph 11.1 mph 65 % 0.0 in 202.0 W/m2 CLR
17:11 14.8 °F 8.6 °F 1026.3 in North 1.9 mph 1.9 mph 66 % 0.0 in 190.0 W/m2 CLR
17:16 14.7 °F 8.2 °F 1026.3 in NNW 7.4 mph 7.4 mph 65 % 0.0 in 171.0 W/m2 CLR
17:21 14.6 °F 8.1 °F 1026.3 in North 6.4 mph 6.4 mph 65 % 0.0 in 155.0 W/m2 CLR
17:26 14.4 °F 8.1 °F 1026.0 in North 5.6 mph 5.6 mph 66 % 0.0 in 139.0 W/m2 CLR
17:31 14.3 °F 8.0 °F 1026.0 in North 7.4 mph 7.4 mph 66 % 0.0 in 123.0 W/m2 CLR
17:36 14.2 °F 7.9 °F 1026.0 in North 3.2 mph 3.2 mph 66 % 0.0 in 107.0 W/m2 CLR
17:41 14.1 °F 7.8 °F 1026.0 in North 5.6 mph 5.6 mph 66 % 0.0 in 93.0 W/m2 CLR
17:46 14.0 °F 7.9 °F 1026.0 in North 1.9 mph   67 % 0.0 in 81.0 W/m2 FEW
17:51 13.9 °F 7.8 °F 1026.0 in Calm     67 % 0.0 in 58.0 W/m2 SCT
17:56 13.8 °F 7.9 °F 1026.0 in Calm     68 % 0.0 in 53.0 W/m2 SCT
18:01 13.7 °F 8.1 °F 1026.0 in North 5.6 mph 5.6 mph 69 % 0.0 in 40.0 W/m2 BKN
18:06 13.5 °F 8.3 °F 1026.0 in Calm     71 % 0.0 in 32.0 W/m2 BKN
18:11 13.3 °F 8.3 °F 1026.0 in Calm     72 % 0.0 in 23.0 W/m2 BKN
18:16 13.1 °F 8.2 °F 1026.0 in Calm     72 % 0.0 in 16.0 W/m2 BKN
18:21 12.9 °F 8.2 °F 1026.0 in Calm     73 % 0.0 in 12.0 W/m2 BKN
18:26 12.6 °F 8.1 °F 1026.0 in Calm     74 % 0.0 in 11.0 W/m2 BKN
18:31 12.3 °F 8.0 °F 1026.0 in Calm     75 % 0.0 in 7.0 W/m2 BKN
18:36 12.2 °F 8.1 °F 1026.0 in Calm     76 % 0.0 in 5.0 W/m2 OVC
18:41 12.0 °F 7.9 °F 1026.0 in Calm     76 % 0.0 in 0.0 W/m2 OVC
18:46 11.9 °F 8.0 °F 1026.0 in Calm     77 % 0.0 in 0.0 W/m2 OVC
18:51 11.8 °F 7.9 °F 1026.0 in Calm     77 % 0.0 in 0.0 W/m2 CLR
18:56 11.6 °F 7.7 °F 1026.0 in Calm     77 % 0.0 in 0.0 W/m2 CLR
19:01 11.3 °F 7.6 °F 1026.0 in Calm     78 % 0.0 in 0.0 W/m2 CLR
19:06 11.1 °F 7.6 °F 1026.3 in Calm     79 % 0.0 in 0.0 W/m2 CLR
19:11 10.8 °F 7.4 °F 1026.0 in Calm     80 % 0.0 in 0.0 W/m2 CLR
19:16 10.4 °F 7.2 °F 1026.3 in Calm     80 % 0.0 in 0.0 W/m2 CLR
19:21 10.0 °F 6.9 °F 1026.3 in Calm     81 % 0.0 in 0.0 W/m2 CLR
19:26 9.7 °F 7.0 °F 1026.3 in Calm     83 % 0.0 in 0.0 W/m2 CLR
19:31 9.5 °F 6.8 °F 1026.3 in Calm     83 % 0.0 in 0.0 W/m2 CLR
19:36 9.2 °F 6.7 °F 1026.3 in Calm     84 % 0.0 in 0.0 W/m2 CLR
19:41 9.0 °F 6.4 °F 1026.3 in Calm     84 % 0.0 in 0.0 W/m2 CLR
19:46 8.8 °F 6.4 °F 1026.3 in Calm     85 % 0.0 in 0.0 W/m2 CLR
19:51 8.6 °F 6.2 °F 1026.3 in Calm     85 % 0.0 in 0.0 W/m2 CLR
19:56 8.3 °F 5.9 °F 1026.3 in Calm     85 % 0.0 in 0.0 W/m2 CLR
20:01 8.1 °F 5.9 °F 1026.3 in Calm     86 % 0.0 in 0.0 W/m2 CLR
20:06 8.0 °F 5.9 °F 1026.6 in Calm     87 % 0.0 in 0.0 W/m2 CLR
20:11 7.8 °F 5.7 °F 1026.6 in Calm     87 % 0.0 in 0.0 W/m2 CLR
20:16 7.6 °F 5.6 °F 1026.6 in Calm     87 % 0.0 in 0.0 W/m2 CLR
20:21 7.5 °F 5.5 °F 1026.6 in Calm     87 % 0.0 in 0.0 W/m2 CLR
20:26 7.3 °F 5.3 °F 1026.6 in Calm   0.2 mph 87 % 0.0 in 0.0 W/m2 CLR
20:31 7.2 °F 5.3 °F 1026.6 in Calm     88 % 0.0 in 0.0 W/m2 CLR
20:36 7.0 °F 5.2 °F 1026.6 in Calm     88 % 0.0 in 0.0 W/m2 CLR
20:41 6.9 °F 5.2 °F 1026.6 in Calm     89 % 0.0 in 0.0 W/m2 CLR
20:46 6.7 °F 5.1 °F 1026.6 in Calm     89 % 0.0 in 0.0 W/m2 CLR
20:51 6.6 °F 4.9 °F 1027.0 in Calm     89 % 0.0 in 0.0 W/m2 CLR
20:56 6.5 °F 4.8 °F 1027.0 in Calm     89 % 0.0 in 0.0 W/m2 CLR
21:01 6.4 °F 4.8 °F 1027.0 in Calm     89 % 0.0 in 0.0 W/m2 CLR
21:06 6.3 °F 4.8 °F 1027.0 in Calm     90 % 0.0 in 0.0 W/m2 CLR
21:11 6.2 °F 4.7 °F 1027.0 in Calm     90 % 0.0 in 0.0 W/m2 CLR
21:16 6.1 °F 4.6 °F 1027.0 in Calm     90 % 0.0 in 0.0 W/m2 CLR
21:21 5.9 °F 4.4 °F 1027.0 in Calm     90 % 0.0 in 0.0 W/m2 CLR
21:26 5.8 °F 4.3 °F 1027.0 in Calm     90 % 0.0 in 0.0 W/m2 CLR
21:31 5.7 °F 4.2 °F 1027.0 in Calm     90 % 0.0 in 0.0 W/m2 CLR
21:36 5.6 °F 4.1 °F 1027.0 in Calm     90 % 0.0 in 0.0 W/m2 CLR
21:41 5.5 °F 4.0 °F 1027.0 in Calm     90 % 0.0 in 0.0 W/m2 CLR
21:46 5.5 °F 4.2 °F 1027.3 in Calm     91 % 0.0 in 0.0 W/m2 CLR
21:51 5.5 °F 4.2 °F 1027.3 in Calm     91 % 0.0 in 0.0 W/m2 CLR
21:56 5.4 °F 4.1 °F 1027.3 in Calm     91 % 0.0 in 0.0 W/m2 CLR
22:01 5.3 °F 4.0 °F 1027.3 in Calm     91 % 0.0 in 0.0 W/m2 CLR
22:06 5.3 °F 3.9 °F 1027.3 in Calm     91 % 0.0 in 0.0 W/m2 CLR
22:11 5.2 °F 3.9 °F 1027.3 in Calm     91 % 0.0 in 0.0 W/m2 CLR
22:16 5.1 °F 3.7 °F 1027.3 in Calm     91 % 0.0 in 0.0 W/m2 CLR
22:21 4.9 °F 3.6 °F 1027.3 in Calm     91 % 0.0 in 0.0 W/m2 CLR
22:26 4.7 °F 3.4 °F 1027.3 in Calm     91 % 0.0 in 0.0 W/m2 CLR
22:31 4.8 °F 3.6 °F 1027.0 in Calm     92 % 0.0 in 0.0 W/m2 CLR
22:36 4.8 °F 3.4 °F 1027.3 in Calm     91 % 0.0 in 0.0 W/m2 CLR
22:41 4.6 °F 3.2 °F 1027.3 in Calm     91 % 0.0 in 0.0 W/m2 CLR
22:46 4.4 °F 3.1 °F 1027.3 in Calm     91 % 0.0 in 0.0 W/m2 CLR
22:51 4.3 °F 3.0 °F 1027.3 in Calm     91 % 0.0 in 0.0 W/m2 CLR
22:56 4.3 °F 3.0 °F 1027.3 in Calm     91 % 0.0 in 0.0 W/m2 CLR
23:01 4.2 °F 3.1 °F 1027.3 in Calm     92 % 0.0 in 0.0 W/m2 CLR
23:06 4.2 °F 3.0 °F 1027.3 in Calm     92 % 0.0 in 0.0 W/m2 CLR
23:11 4.1 °F 2.9 °F 1027.0 in Calm     92 % 0.0 in 0.0 W/m2 CLR
23:16 4.1 °F 2.9 °F 1027.0 in Calm     92 % 0.0 in 0.0 W/m2 CLR
23:21 4.1 °F 2.9 °F 1027.0 in Calm     92 % 0.0 in 0.0 W/m2 CLR
23:26 4.0 °F 2.8 °F 1027.0 in Calm     92 % 0.0 in 0.0 W/m2 CLR
23:31 3.9 °F 2.8 °F 1027.0 in Calm     92 % 0.0 in 0.0 W/m2 CLR
23:36 3.8 °F 2.7 °F 1027.0 in Calm     92 % 0.0 in 0.0 W/m2 CLR
23:41 3.7 °F 2.6 °F 1027.0 in Calm     92 % 0.0 in 0.0 W/m2 CLR
23:47 3.7 °F 2.5 °F 1027.0 in Calm     92 % 0.0 in 0.0 W/m2 CLR
23:52 3.6 °F 2.4 °F 1027.0 in Calm     92 % 0.0 in 0.0 W/m2 CLR
23:57 3.5 °F 2.3 °F 1027.0 in Calm     92 % 0.0 in 0.0 W/m2 CLR
Lo Temps de Massalio
Compliments of Weather Underground - 1.25 mb